YV182T SVMI-SVMG
Flight info
| Callsign | YV182T |
|---|---|
| Flight time | 0h 32m |
| Altitude | 27000 |
| Route | OSMAR2 OSMAR DCT DALSI W19 CHALO DCT VAREX |
| Aircraft | C550/L-SDFGHRWY/S |
Departure
| Time | 2026-05-09 15:24 |
|---|---|
| Airport | Maiquetía Simón Bolívar International Airport (SVMI) |
Arrival
| Time | 2026-05-09 15:57 |
|---|---|
| Airport | Del Caribe Santiago Mariño International Airport (SVMG) |
| Time | Latitude | Longitude | Altitude | Speed | Heading |
|---|---|---|---|---|---|
| 2026-05-09 15:06 | 10.59765 | -66.99367 | 239 ft | 0 kts | 164° |
| 2026-05-09 15:17 | 10.59764 | -66.99367 | 239 ft | 0 kts | 164° |
| 2026-05-09 15:18 | 10.59763 | -66.99367 | 239 ft | 0 kts | 164° |
| 2026-05-09 15:19 | 10.59762 | -66.99367 | 239 ft | 0 kts | 164° |
| 2026-05-09 15:19 | 10.59762 | -66.99366 | 239 ft | 0 kts | 164° |
| 2026-05-09 15:20 | 10.59761 | -66.99366 | 239 ft | 0 kts | 164° |
| 2026-05-09 15:21 | 10.59760 | -66.99366 | 239 ft | 0 kts | 164° |
| 2026-05-09 15:22 | 10.59749 | -66.99390 | 239 ft | 16 kts | 306° |
| 2026-05-09 15:22 | 10.59797 | -66.99474 | 239 ft | 12 kts | 284° |
| 2026-05-09 15:22 | 10.59796 | -66.99585 | 239 ft | 19 kts | 259° |
| 2026-05-09 15:22 | 10.59802 | -66.99691 | 239 ft | 10 kts | 295° |
| 2026-05-09 15:23 | 10.59806 | -66.99700 | 239 ft | 0 kts | 298° |
| 2026-05-09 15:23 | 10.59807 | -66.99700 | 239 ft | 0 kts | 298° |
| 2026-05-09 15:23 | 10.59807 | -66.99701 | 239 ft | 0 kts | 298° |
| 2026-05-09 15:24 | 10.59857 | -66.99728 | 239 ft | 16 kts | 35° |
| 2026-05-09 15:24 | 10.59923 | -66.99540 | 239 ft | 65 kts | 71° |
| 2026-05-09 15:24 | 10.60086 | -66.98864 | 566 ft | 110 kts | 76° |
| 2026-05-09 15:24 | 10.60253 | -66.98096 | 1369 ft | 123 kts | 78° |
| 2026-05-09 15:25 | 10.60436 | -66.97099 | 1882 ft | 164 kts | 81° |
| 2026-05-09 15:25 | 10.60645 | -66.95772 | 2337 ft | 212 kts | 81° |
| 2026-05-09 15:25 | 10.60893 | -66.94155 | 2763 ft | 253 kts | 81° |
| 2026-05-09 15:26 | 10.61492 | -66.90233 | 3993 ft | 294 kts | 81° |
| 2026-05-09 15:26 | 10.61840 | -66.88165 | 4985 ft | 296 kts | 75° |
| 2026-05-09 15:26 | 10.62461 | -66.86181 | 5987 ft | 297 kts | 66° |
| 2026-05-09 15:26 | 10.63283 | -66.84248 | 6947 ft | 301 kts | 64° |
| 2026-05-09 15:27 | 10.64177 | -66.82277 | 7714 ft | 312 kts | 64° |
| 2026-05-09 15:27 | 10.65073 | -66.80226 | 8454 ft | 322 kts | 65° |
| 2026-05-09 15:27 | 10.65940 | -66.78103 | 9185 ft | 332 kts | 66° |
| 2026-05-09 15:27 | 10.66787 | -66.75878 | 9922 ft | 341 kts | 68° |
| 2026-05-09 15:28 | 10.67567 | -66.73700 | 10619 ft | 349 kts | 69° |
| 2026-05-09 15:28 | 10.68276 | -66.71626 | 11279 ft | 355 kts | 70° |
| 2026-05-09 15:28 | 10.69055 | -66.69259 | 12233 ft | 354 kts | 70° |
| 2026-05-09 15:28 | 10.69813 | -66.66884 | 13229 ft | 350 kts | 71° |
| 2026-05-09 15:29 | 10.70548 | -66.64536 | 14222 ft | 346 kts | 71° |
| 2026-05-09 15:29 | 10.71260 | -66.62232 | 15208 ft | 341 kts | 71° |
| 2026-05-09 15:29 | 10.71961 | -66.59942 | 16202 ft | 335 kts | 72° |
| 2026-05-09 15:29 | 10.72621 | -66.57694 | 17192 ft | 329 kts | 72° |
| 2026-05-09 15:30 | 10.73247 | -66.55481 | 18109 ft | 325 kts | 73° |
| 2026-05-09 15:30 | 10.73856 | -66.53268 | 18874 ft | 326 kts | 73° |
| 2026-05-09 15:30 | 10.74456 | -66.51053 | 19623 ft | 326 kts | 73° |
| 2026-05-09 15:30 | 10.75050 | -66.48829 | 20373 ft | 325 kts | 73° |
| 2026-05-09 15:31 | 10.75640 | -66.46606 | 21122 ft | 324 kts | 73° |
| 2026-05-09 15:31 | 10.76223 | -66.44394 | 21871 ft | 322 kts | 73° |
| 2026-05-09 15:31 | 10.76798 | -66.42205 | 22616 ft | 319 kts | 73° |
| 2026-05-09 15:31 | 10.77367 | -66.40036 | 23360 ft | 316 kts | 73° |
| 2026-05-09 15:32 | 10.77927 | -66.37898 | 24093 ft | 312 kts | 73° |
| 2026-05-09 15:32 | 10.78496 | -66.35742 | 24530 ft | 320 kts | 73° |
| 2026-05-09 15:32 | 10.79089 | -66.33523 | 24811 ft | 331 kts | 73° |
| 2026-05-09 15:32 | 10.79705 | -66.31236 | 25073 ft | 342 kts | 73° |
| 2026-05-09 15:33 | 10.80346 | -66.28860 | 25333 ft | 352 kts | 73° |
| 2026-05-09 15:33 | 10.81006 | -66.26419 | 25590 ft | 363 kts | 73° |
| 2026-05-09 15:33 | 10.81684 | -66.23915 | 25846 ft | 374 kts | 73° |
| 2026-05-09 15:33 | 10.82384 | -66.21329 | 26103 ft | 384 kts | 73° |
| 2026-05-09 15:34 | 10.83099 | -66.18686 | 26358 ft | 391 kts | 73° |
| 2026-05-09 15:34 | 10.83581 | -66.16902 | 26527 ft | 394 kts | 73° |
| 2026-05-09 15:34 | 10.84555 | -66.13294 | 26826 ft | 401 kts | 73° |
| 2026-05-09 15:34 | 10.85298 | -66.10542 | 26948 ft | 407 kts | 73° |
| 2026-05-09 15:35 | 10.86054 | -66.07740 | 26997 ft | 414 kts | 73° |
| 2026-05-09 15:35 | 10.86818 | -66.04906 | 27004 ft | 420 kts | 73° |
| 2026-05-09 15:35 | 10.87596 | -66.02018 | 27004 ft | 425 kts | 73° |
| 2026-05-09 15:35 | 10.88347 | -65.99098 | 27003 ft | 430 kts | 77° |
| 2026-05-09 15:36 | 10.88860 | -65.96090 | 27005 ft | 433 kts | 82° |
| 2026-05-09 15:36 | 10.89175 | -65.93043 | 27004 ft | 435 kts | 85° |
| 2026-05-09 15:36 | 10.89368 | -65.89960 | 27002 ft | 436 kts | 87° |
| 2026-05-09 15:36 | 10.89453 | -65.87920 | 27001 ft | 437 kts | 88° |
| 2026-05-09 15:37 | 10.89540 | -65.84824 | 27001 ft | 437 kts | 89° |
| 2026-05-09 15:37 | 10.89596 | -65.81729 | 27001 ft | 438 kts | 89° |
| 2026-05-09 15:37 | 10.89638 | -65.78648 | 27000 ft | 438 kts | 89° |
| 2026-05-09 15:37 | 10.89672 | -65.75551 | 27000 ft | 438 kts | 89° |
| 2026-05-09 15:38 | 10.89705 | -65.72444 | 27000 ft | 438 kts | 89° |
| 2026-05-09 15:38 | 10.89738 | -65.69348 | 27000 ft | 438 kts | 89° |
| 2026-05-09 15:38 | 10.89786 | -65.65238 | 27000 ft | 438 kts | 89° |
| 2026-05-09 15:38 | 10.89812 | -65.63162 | 27000 ft | 438 kts | 89° |
| 2026-05-09 15:39 | 10.89854 | -65.60055 | 27000 ft | 438 kts | 89° |
| 2026-05-09 15:39 | 10.89898 | -65.56964 | 27000 ft | 438 kts | 89° |
| 2026-05-09 15:39 | 10.89944 | -65.53855 | 27000 ft | 438 kts | 89° |
| 2026-05-09 15:39 | 10.89992 | -65.50757 | 27000 ft | 438 kts | 89° |
| 2026-05-09 15:40 | 10.90041 | -65.47671 | 27000 ft | 438 kts | 89° |
| 2026-05-09 15:40 | 10.90091 | -65.44579 | 27000 ft | 438 kts | 89° |
| 2026-05-09 15:40 | 10.90142 | -65.41475 | 27000 ft | 438 kts | 89° |
| 2026-05-09 15:40 | 10.90193 | -65.38375 | 27000 ft | 438 kts | 89° |
| 2026-05-09 15:41 | 10.90245 | -65.35284 | 27000 ft | 438 kts | 89° |
| 2026-05-09 15:41 | 10.90298 | -65.32182 | 27000 ft | 438 kts | 89° |
| 2026-05-09 15:41 | 10.90356 | -65.29094 | 27000 ft | 438 kts | 89° |
| 2026-05-09 15:41 | 10.90418 | -65.25990 | 27000 ft | 438 kts | 89° |
| 2026-05-09 15:42 | 10.90481 | -65.22907 | 27000 ft | 438 kts | 89° |
| 2026-05-09 15:42 | 10.90546 | -65.19801 | 27000 ft | 438 kts | 89° |
| 2026-05-09 15:42 | 10.90611 | -65.16694 | 27000 ft | 438 kts | 89° |
| 2026-05-09 15:42 | 10.90676 | -65.13614 | 27000 ft | 438 kts | 89° |
| 2026-05-09 15:43 | 10.90741 | -65.10513 | 27000 ft | 438 kts | 89° |
| 2026-05-09 15:43 | 10.90805 | -65.07423 | 27000 ft | 438 kts | 89° |
| 2026-05-09 15:43 | 10.90870 | -65.04328 | 27000 ft | 438 kts | 89° |
| 2026-05-09 15:43 | 10.90934 | -65.01219 | 27000 ft | 438 kts | 89° |
| 2026-05-09 15:44 | 10.90997 | -64.98118 | 27000 ft | 438 kts | 89° |
| 2026-05-09 15:44 | 10.91060 | -64.95026 | 27000 ft | 438 kts | 89° |
| 2026-05-09 15:44 | 10.91123 | -64.91936 | 27001 ft | 438 kts | 89° |
| 2026-05-09 15:44 | 10.91186 | -64.88816 | 26961 ft | 439 kts | 89° |
| 2026-05-09 15:45 | 10.91247 | -64.85739 | 26650 ft | 432 kts | 89° |
| 2026-05-09 15:45 | 10.91307 | -64.82713 | 26217 ft | 428 kts | 89° |
| 2026-05-09 15:45 | 10.91367 | -64.79687 | 25729 ft | 427 kts | 89° |
| 2026-05-09 15:45 | 10.91427 | -64.76662 | 25231 ft | 427 kts | 89° |
| 2026-05-09 15:46 | 10.91485 | -64.73646 | 24732 ft | 425 kts | 89° |
| 2026-05-09 15:46 | 10.91543 | -64.70664 | 24234 ft | 422 kts | 89° |
| 2026-05-09 15:46 | 10.91599 | -64.67711 | 23739 ft | 421 kts | 89° |
| 2026-05-09 15:46 | 10.91645 | -64.64716 | 23237 ft | 420 kts | 89° |
| 2026-05-09 15:47 | 10.91681 | -64.61754 | 22737 ft | 418 kts | 89° |
| 2026-05-09 15:47 | 10.91709 | -64.58816 | 22237 ft | 415 kts | 89° |
| 2026-05-09 15:47 | 10.91733 | -64.55867 | 21734 ft | 413 kts | 89° |
| 2026-05-09 15:47 | 10.91753 | -64.52957 | 20967 ft | 411 kts | 89° |
| 2026-05-09 15:48 | 10.91771 | -64.50199 | 19736 ft | 369 kts | 89° |
| 2026-05-09 15:48 | 10.91786 | -64.47686 | 18485 ft | 351 kts | 89° |
| 2026-05-09 15:48 | 10.91800 | -64.45196 | 17237 ft | 355 kts | 90° |
| 2026-05-09 15:48 | 10.91813 | -64.42673 | 15989 ft | 357 kts | 90° |
| 2026-05-09 15:49 | 10.91813 | -64.40160 | 14742 ft | 354 kts | 90° |
| 2026-05-09 15:49 | 10.91801 | -64.37674 | 13492 ft | 348 kts | 90° |
| 2026-05-09 15:49 | 10.91782 | -64.35261 | 12259 ft | 343 kts | 90° |
| 2026-05-09 15:49 | 10.91757 | -64.32815 | 10995 ft | 340 kts | 90° |
| 2026-05-09 15:50 | 10.91730 | -64.30423 | 9747 ft | 335 kts | 90° |
| 2026-05-09 15:50 | 10.91698 | -64.28065 | 8739 ft | 332 kts | 90° |
| 2026-05-09 15:50 | 10.91677 | -64.25806 | 8170 ft | 310 kts | 90° |
| 2026-05-09 15:50 | 10.91652 | -64.23641 | 7196 ft | 310 kts | 91° |
| 2026-05-09 15:51 | 10.91624 | -64.21425 | 6208 ft | 308 kts | 90° |
| 2026-05-09 15:51 | 10.91422 | -64.19282 | 5233 ft | 305 kts | 105° |
| 2026-05-09 15:51 | 10.90379 | -64.17452 | 4370 ft | 298 kts | 134° |
| 2026-05-09 15:51 | 10.88876 | -64.16223 | 4328 ft | 267 kts | 145° |
| 2026-05-09 15:52 | 10.87047 | -64.13441 | 4161 ft | 223 kts | 88° |
| 2026-05-09 15:52 | 10.87424 | -64.12105 | 4095 ft | 181 kts | 62° |
| 2026-05-09 15:52 | 10.88004 | -64.11072 | 3859 ft | 158 kts | 57° |
| 2026-05-09 15:53 | 10.88448 | -64.10260 | 3877 ft | 108 kts | 62° |
| 2026-05-09 15:53 | 10.88730 | -64.09579 | 3562 ft | 99 kts | 69° |
| 2026-05-09 15:53 | 10.88953 | -64.08878 | 3343 ft | 108 kts | 74° |
| 2026-05-09 15:53 | 10.89124 | -64.08164 | 3300 ft | 113 kts | 78° |
| 2026-05-09 15:54 | 10.89269 | -64.07309 | 3146 ft | 130 kts | 80° |
| 2026-05-09 15:54 | 10.89391 | -64.06383 | 2526 ft | 137 kts | 84° |
| 2026-05-09 15:54 | 10.89505 | -64.05440 | 1907 ft | 128 kts | 81° |
| 2026-05-09 15:54 | 10.89636 | -64.04607 | 1480 ft | 115 kts | 81° |
| 2026-05-09 15:55 | 10.89737 | -64.03785 | 1285 ft | 124 kts | 83° |
| 2026-05-09 15:55 | 10.89869 | -64.02926 | 1178 ft | 119 kts | 80° |
| 2026-05-09 15:55 | 10.90020 | -64.02139 | 943 ft | 111 kts | 78° |
| 2026-05-09 15:55 | 10.90191 | -64.01307 | 831 ft | 125 kts | 78° |
| 2026-05-09 15:56 | 10.90357 | -64.00512 | 629 ft | 104 kts | 75° |
| 2026-05-09 15:56 | 10.90541 | -63.99798 | 485 ft | 121 kts | 73° |
| 2026-05-09 15:56 | 10.90762 | -63.98987 | 303 ft | 111 kts | 74° |
| 2026-05-09 15:56 | 10.90939 | -63.98215 | 154 ft | 114 kts | 78° |
| 2026-05-09 15:57 | 10.91091 | -63.97507 | 79 ft | 82 kts | 78° |
| 2026-05-09 15:57 | 10.91142 | -63.97244 | 79 ft | 1 kts | 79° |
| 2026-05-09 15:57 | 10.91198 | -63.97120 | 79 ft | 18 kts | 5° |
| 2026-05-09 15:57 | 10.91263 | -63.97127 | 79 ft | 0 kts | 348° |
| 2026-05-09 15:58 | 10.91273 | -63.97130 | 79 ft | 5 kts | 347° |
| 2026-05-09 15:58 | 10.91381 | -63.97162 | 79 ft | 21 kts | 351° |
| 2026-05-09 15:58 | 10.91428 | -63.97104 | 79 ft | 10 kts | 66° |
| 2026-05-09 15:58 | 10.91492 | -63.97099 | 79 ft | 20 kts | 345° |
| 2026-05-09 15:59 | 10.91519 | -63.97073 | 79 ft | 4 kts | 211° |
| 2026-05-09 15:59 | 10.91513 | -63.97085 | 79 ft | 0 kts | 256° |
| 2026-05-09 15:59 | 10.91513 | -63.97086 | 79 ft | 0 kts | 256° |
| 2026-05-09 16:00 | 10.91513 | -63.97087 | 79 ft | 0 kts | 256° |